Time;durP1;ratioP1;P1;durP2;ratioP2;P2;SDS_P1;SDS_P2;PMS_P1;PMS_P2;Temp;Humidity;BMP_temperature;BMP_pressure;BME280_temperature;BME280_humidity;BME280_pressure;Samples;Min_cycle;Max_cycle;Signal;HPM_P1;HPM_P2
2022/11/24 00:01:10;;;;;;;20.60;7.88;;;6.80;99.90;;;;;;5094036;28;20036;-80
2022/11/24 00:03:36;;;;;;;16.20;7.78;;;6.80;99.90;;;;;;5094312;28;20032;-79
2022/11/24 00:06:04;;;;;;;13.45;6.88;;;6.80;99.90;;;;;;5094040;28;20050;-80
2022/11/24 00:08:30;;;;;;;14.55;7.07;;;6.80;99.90;;;;;;5094168;28;20404;-80
2022/11/24 00:11:00;;;;;;;23.20;7.00;;;6.80;99.90;;;;;;5093814;28;20036;-79
2022/11/24 00:13:26;;;;;;;17.05;6.95;;;6.70;99.90;;;;;;5093971;28;20076;-80
2022/11/24 00:15:52;;;;;;;18.30;6.72;;;6.70;99.90;;;;;;5093919;28;20471;-80
2022/11/24 00:18:17;;;;;;;25.77;6.55;;;6.70;99.90;;;;;;5093762;28;20044;-79
2022/11/24 00:20:51;;;;;;;19.85;6.60;;;6.70;99.90;;;;;;5093972;28;20109;-80
2022/11/24 00:23:16;;;;;;;19.30;6.70;;;6.60;99.90;;;;;;5093800;28;20135;-79
2022/11/24 00:25:42;;;;;;;15.13;6.10;;;6.70;99.90;;;;;;5093366;28;20206;-80
2022/11/24 00:28:08;;;;;;;18.42;6.75;;;6.70;99.90;;;;;;5094023;28;20479;-80
2022/11/24 00:30:33;;;;;;;15.38;6.90;;;6.60;99.90;;;;;;5094318;28;20040;-80
2022/11/24 00:32:59;;;;;;;17.58;6.45;;;6.60;99.90;;;;;;5094302;28;20047;-78
2022/11/24 00:35:24;;;;;;;19.80;6.10;;;6.60;99.90;;;;;;5094256;28;20127;-78
2022/11/24 00:37:52;;;;;;;21.58;7.53;;;6.50;99.90;;;;;;5093976;28;20050;-79
2022/11/24 00:40:18;;;;;;;16.15;5.97;;;6.50;99.90;;;;;;5093840;28;20083;-79
2022/11/24 00:42:43;;;;;;;17.13;5.85;;;6.50;99.90;;;;;;5093752;28;20085;-79
2022/11/24 00:45:09;;;;;;;19.27;7.22;;;6.40;99.90;;;;;;5093536;28;20051;-79
2022/11/24 00:47:35;;;;;;;22.23;6.32;;;6.40;99.90;;;;;;5092317;28;20055;-79
2022/11/24 00:50:00;;;;;;;17.60;6.15;;;6.40;99.90;;;;;;5093208;28;20080;-79
2022/11/24 00:52:26;;;;;;;20.13;5.93;;;6.30;99.90;;;;;;5093415;28;20059;-78
2022/11/24 00:54:51;;;;;;;17.25;6.53;;;6.40;99.90;;;;;;5093436;28;20550;-79
2022/11/24 00:57:17;;;;;;;18.60;6.57;;;6.40;99.90;;;;;;5093825;28;20571;-79
2022/11/24 00:59:43;;;;;;;20.40;5.85;;;6.50;99.90;;;;;;5093472;28;20040;-79
2022/11/24 01:02:08;;;;;;;29.67;6.15;;;6.40;99.90;;;;;;5093675;28;20101;-79
2022/11/24 01:04:34;;;;;;;16.23;5.80;;;6.40;99.90;;;;;;5093409;28;20048;-79
2022/11/24 01:06:59;;;;;;;22.75;6.55;;;6.40;99.90;;;;;;5093364;28;20047;-79
2022/11/24 01:09:25;;;;;;;20.23;5.60;;;6.40;99.90;;;;;;5093216;28;20380;-78
2022/11/24 01:12:00;;;;;;;20.73;6.35;;;6.40;99.90;;;;;;5093789;28;20086;-79
2022/11/24 01:14:26;;;;;;;18.35;5.93;;;6.80;99.90;;;;;;5093550;28;20040;-79
2022/11/24 01:16:53;;;;;;;18.95;5.50;;;6.40;99.90;;;;;;5093207;28;20105;-78
2022/11/24 01:19:19;;;;;;;18.85;5.60;;;6.70;99.90;;;;;;5093608;28;20048;-78
2022/11/24 01:21:44;;;;;;;21.58;5.68;;;6.80;99.90;;;;;;5093261;28;20181;-79
2022/11/24 01:24:11;;;;;;;13.75;4.93;;;6.40;99.90;;;;;;5092953;28;20048;-80
2022/11/24 01:26:36;;;;;;;20.37;6.27;;;6.30;99.90;;;;;;5093786;28;20377;-79
2022/11/24 01:29:02;;;;;;;27.67;6.72;;;6.20;99.90;;;;;;5093056;28;20292;-79
2022/11/24 01:31:28;;;;;;;20.52;5.57;;;6.30;99.90;;;;;;5093242;28;20056;-80
2022/11/24 01:33:53;;;;;;;29.00;6.13;;;6.30;99.90;;;;;;5092873;28;20044;-80
2022/11/24 01:36:20;;;;;;;26.65;5.60;;;6.20;99.90;;;;;;5093187;28;20050;-80
2022/11/24 01:38:46;;;;;;;14.55;5.00;;;6.30;99.90;;;;;;5093484;28;20043;-80
2022/11/24 01:41:13;;;;;;;18.95;5.78;;;6.30;99.90;;;;;;5096734;28;20036;-79
2022/11/24 01:43:39;;;;;;;21.13;5.63;;;6.20;99.90;;;;;;5096764;28;20135;-79
2022/11/24 01:46:27;;;;;;;20.10;5.35;;;6.20;99.90;;;;;;5097010;28;20044;-79
2022/11/24 01:49:01;;;;;;;25.83;5.60;;;6.30;99.90;;;;;;5095715;28;20052;-80
2022/11/24 01:51:30;;;;;;;30.20;7.32;;;6.30;99.90;;;;;;5096654;28;20051;-80
2022/11/24 01:54:01;;;;;;;18.52;5.30;;;6.30;99.90;;;;;;5096528;28;20052;-79
2022/11/24 01:56:28;;;;;;;24.63;5.88;;;6.30;99.90;;;;;;5096616;28;20131;-80
2022/11/24 01:58:57;;;;;;;17.85;5.60;;;6.40;99.90;;;;;;5096473;28;20075;-80
2022/11/24 02:01:24;;;;;;;16.48;5.05;;;6.30;99.90;;;;;;5096267;28;20054;-79
2022/11/24 02:03:51;;;;;;;19.17;6.65;;;6.20;99.90;;;;;;5096269;28;20044;-79
2022/11/24 02:06:20;;;;;;;;;;;6.30;99.90;;;;;;5096717;28;20090;-80
2022/11/24 02:09:11;;;;;;;15.77;4.90;;;6.30;99.90;;;;;;5095990;28;20390;-79
2022/11/24 02:11:39;;;;;;;22.90;4.88;;;6.30;99.90;;;;;;5096465;28;20048;-80
2022/11/24 02:14:07;;;;;;;20.92;4.88;;;6.30;99.90;;;;;;5095923;28;20515;-80
2022/11/24 02:16:34;;;;;;;19.52;4.90;;;6.30;99.90;;;;;;5096205;28;20052;-79
2022/11/24 02:19:04;;;;;;;21.95;5.30;;;6.30;99.90;;;;;;5096171;28;20040;-80
2022/11/24 02:21:30;;;;;;;25.73;5.38;;;6.20;99.90;;;;;;5096028;28;20039;-79
2022/11/24 02:24:18;;;;;;;28.65;5.15;;;6.30;99.90;;;;;;5095781;28;20093;-79
2022/11/24 02:26:48;;;;;;;25.92;5.65;;;6.30;99.90;;;;;;5095861;28;20048;-79
2022/11/24 02:29:14;;;;;;;23.55;4.85;;;6.40;99.90;;;;;;5095842;28;20046;-79
2022/11/24 02:31:48;;;;;;;23.80;5.80;;;6.40;99.90;;;;;;5095882;28;20123;-79
2022/11/24 02:34:14;;;;;;;19.25;5.30;;;6.40;99.90;;;;;;5095791;28;20077;-79
2022/11/24 02:36:39;;;;;;;19.80;4.95;;;6.40;99.90;;;;;;5095726;28;20036;-80
2022/11/24 02:39:13;;;;;;;18.40;5.07;;;6.30;99.90;;;;;;5095662;28;20122;-79
2022/11/24 02:41:43;;;;;;;22.30;4.93;;;6.40;99.90;;;;;;5096215;28;20106;-79
2022/11/24 02:44:10;;;;;;;23.90;4.80;;;6.40;99.90;;;;;;5096010;28;20043;-80
2022/11/24 02:46:35;;;;;;;22.33;4.95;;;6.40;99.90;;;;;;5095610;28;20086;-80
2022/11/24 02:49:01;;;;;;;17.20;5.07;;;6.40;99.90;;;;;;5095412;28;20500;-80
2022/11/24 02:51:28;;;;;;;17.67;4.43;;;6.40;99.90;;;;;;5094001;28;20047;-80
2022/11/24 02:53:53;;;;;;;29.70;4.68;;;6.40;99.90;;;;;;5095480;28;20365;-80
2022/11/24 02:56:19;;;;;;;17.90;4.55;;;6.40;99.90;;;;;;5095016;28;20040;-80
2022/11/24 02:58:45;;;;;;;20.20;4.80;;;6.70;99.90;;;;;;5095452;28;20126;-80
2022/11/24 03:01:10;;;;;;;20.73;4.65;;;6.70;99.90;;;;;;5095025;28;20048;-79
2022/11/24 03:03:36;;;;;;;23.65;5.43;;;6.40;99.90;;;;;;5095628;28;20048;-79
2022/11/24 03:06:02;;;;;;;22.92;4.32;;;6.60;99.90;;;;;;5095150;28;20039;-79
2022/11/24 03:08:27;;;;;;;16.75;4.45;;;6.50;99.90;;;;;;5093938;28;20035;-79
2022/11/24 03:10:53;;;;;;;21.75;4.78;;;6.50;99.90;;;;;;5094946;28;20039;-79
2022/11/24 03:13:19;;;;;;;19.15;4.35;;;6.80;99.90;;;;;;5094573;28;20052;-80
2022/11/24 03:15:45;;;;;;;14.60;4.47;;;6.50;99.90;;;;;;5095148;28;20119;-79
2022/11/24 03:18:10;;;;;;;27.42;5.10;;;6.60;99.90;;;;;;5094874;28;20093;-80
2022/11/24 03:20:36;;;;;;;13.90;4.15;;;6.60;99.90;;;;;;5094885;28;20040;-79
2022/11/24 03:23:01;;;;;;;23.25;4.78;;;6.60;99.90;;;;;;5094807;28;20036;-79
2022/11/24 03:25:27;;;;;;;27.27;4.75;;;6.60;99.90;;;;;;5094922;28;20113;-79
2022/11/24 03:27:56;;;;;;;16.27;4.35;;;6.60;99.90;;;;;;5094620;28;20125;-80
2022/11/24 03:30:21;;;;;;;15.95;4.18;;;6.70;99.90;;;;;;5094652;28;20119;-80
2022/11/24 03:32:49;;;;;;;21.23;4.20;;;6.70;99.90;;;;;;5094599;28;20128;-79
2022/11/24 03:35:15;;;;;;;21.08;4.45;;;6.80;99.90;;;;;;5094551;28;20048;-79
2022/11/24 03:37:41;;;;;;;16.05;4.30;;;6.80;99.90;;;;;;5094639;28;20105;-79
2022/11/24 03:40:07;;;;;;;18.65;4.55;;;6.80;99.90;;;;;;5094116;28;20048;-80
2022/11/24 03:42:33;;;;;;;14.13;3.63;;;6.90;99.90;;;;;;5094604;28;20051;-79
2022/11/24 03:44:58;;;;;;;15.77;4.38;;;6.90;99.90;;;;;;5094435;28;20404;-79
2022/11/24 03:47:24;;;;;;;18.38;4.25;;;6.90;99.90;;;;;;5094292;28;20468;-80
2022/11/24 03:49:50;;;;;;;16.20;4.00;;;7.00;99.90;;;;;;5094454;28;20040;-80
2022/11/24 03:52:15;;;;;;;25.30;5.07;;;6.90;99.90;;;;;;5094315;28;20472;-80
2022/11/24 03:54:41;;;;;;;10.65;3.53;;;7.00;99.90;;;;;;5094486;28;20046;-79
2022/11/24 03:57:07;;;;;;;14.90;4.43;;;6.90;99.90;;;;;;5093462;28;20044;-79
2022/11/24 03:59:33;;;;;;;15.35;4.43;;;6.90;99.90;;;;;;5094136;28;20040;-79
2022/11/24 04:01:59;;;;;;;21.75;4.00;;;6.90;99.90;;;;;;5093621;28;20048;-79
2022/11/24 04:04:24;;;;;;;18.40;3.75;;;6.80;99.90;;;;;;5094047;28;20043;-80
2022/11/24 04:06:50;;;;;;;13.10;3.45;;;6.80;99.90;;;;;;5093999;28;20050;-80
2022/11/24 04:09:16;;;;;;;14.18;3.80;;;6.80;99.90;;;;;;5093655;28;20051;-80
2022/11/24 04:14:25;;;;;;;18.83;4.13;;;6.70;99.90;;;;;;5093787;28;20134;-80
2022/11/24 04:16:51;;;;;;;18.73;3.78;;;6.70;99.90;;;;;;5093951;28;20091;-80
2022/11/24 04:19:17;;;;;;;25.42;3.95;;;6.70;99.90;;;;;;5093854;28;20040;-80
2022/11/24 04:21:42;;;;;;;15.00;4.10;;;7.40;99.90;;;;;;5093853;28;20058;-80
2022/11/24 04:24:08;;;;;;;20.35;3.70;;;6.60;99.90;;;;;;5093714;28;20434;-80
2022/11/24 04:26:33;;;;;;;13.30;3.75;;;6.60;99.90;;;;;;5092606;28;20046;-79
2022/11/24 04:28:59;;;;;;;16.08;3.97;;;6.60;99.90;;;;;;5093768;28;20066;-80
2022/11/24 04:31:24;;;;;;;13.20;3.92;;;7.00;99.90;;;;;;5093769;28;20102;-80
2022/11/24 04:33:50;;;;;;;16.52;3.83;;;6.70;99.90;;;;;;5094009;28;20044;-80
2022/11/24 04:36:16;;;;;;;23.08;3.80;;;6.70;99.90;;;;;;5093695;28;20044;-79
2022/11/24 04:38:41;;;;;;;26.73;4.85;;;6.70;99.90;;;;;;5093642;28;20086;-80
2022/11/24 04:41:08;;;;;;;20.23;3.88;;;6.70;99.90;;;;;;5093758;28;20047;-80
2022/11/24 04:43:33;;;;;;;20.90;4.10;;;6.70;99.90;;;;;;5093959;28;20051;-80
2022/11/24 04:46:00;;;;;;;12.77;3.60;;;6.70;99.90;;;;;;5093708;28;20044;-80
2022/11/24 04:48:26;;;;;;;14.80;3.92;;;6.70;99.90;;;;;;5093656;28;20040;-80
2022/11/24 04:50:51;;;;;;;23.90;4.35;;;6.80;99.90;;;;;;5093553;28;20051;-80
2022/11/24 04:53:17;;;;;;;13.70;3.45;;;6.80;99.90;;;;;;5093423;28;20076;-80
2022/11/24 04:55:43;;;;;;;16.67;3.92;;;6.80;99.90;;;;;;5093593;28;20040;-79
2022/11/24 04:58:12;;;;;;;11.60;3.40;;;6.80;99.90;;;;;;5093380;28;20055;-79
2022/11/24 05:00:38;;;;;;;15.95;3.85;;;6.80;99.90;;;;;;5093309;28;20036;-79
2022/11/24 05:03:04;;;;;;;13.32;3.30;;;6.70;99.90;;;;;;5093561;28;20127;-79
2022/11/24 05:05:30;;;;;;;15.98;3.55;;;6.80;99.90;;;;;;5093629;28;20051;-80
2022/11/24 05:07:58;;;;;;;20.63;3.87;;;6.80;99.90;;;;;;5093401;28;20373;-80
2022/11/24 05:10:42;;;;;;;18.65;3.85;;;6.80;99.90;;;;;;5093843;28;20040;-80
2022/11/24 05:13:12;;;;;;;18.17;3.90;;;6.80;99.90;;;;;;5093431;28;20044;-80
2022/11/24 05:15:39;;;;;;;14.30;3.70;;;6.80;99.90;;;;;;5096737;28;20040;-80
2022/11/24 05:18:07;;;;;;;16.60;3.80;;;6.90;99.90;;;;;;5097172;28;20039;-80
2022/11/24 05:20:32;;;;;;;;;;;6.90;99.90;;;;;;5097627;28;20068;-80
2022/11/24 05:23:04;;;;;;;19.65;3.70;;;6.90;99.90;;;;;;5097142;28;19920;-80
2022/11/24 05:25:30;;;;;;;15.75;3.95;;;6.90;99.90;;;;;;5097360;28;20403;-80
2022/11/24 05:28:02;;;;;;;18.25;3.55;;;6.90;99.90;;;;;;5096858;28;20062;-79
2022/11/24 05:30:29;;;;;;;20.02;3.63;;;6.90;99.90;;;;;;5097207;28;20119;-79
2022/11/24 05:32:55;;;;;;;14.40;3.90;;;6.90;99.90;;;;;;5096954;28;20040;-79
2022/11/24 05:35:21;;;;;;;17.40;3.50;;;6.90;99.90;;;;;;5096947;28;20047;-80
2022/11/24 05:37:46;;;;;;;12.50;3.75;;;6.80;99.90;;;;;;5096908;28;20127;-79
2022/11/24 05:40:13;;;;;;;15.25;3.88;;;6.80;99.90;;;;;;5096762;28;20044;-80
2022/11/24 05:42:42;;;;;;;10.33;3.77;;;6.70;99.90;;;;;;5096857;28;20105;-79
2022/11/24 05:45:10;;;;;;;16.40;3.90;;;6.80;99.90;;;;;;5096204;28;20325;-79
2022/11/24 05:47:36;;;;;;;14.57;3.80;;;6.70;99.90;;;;;;5096529;28;20452;-80
2022/11/24 05:50:02;;;;;;;13.60;4.03;;;6.70;99.90;;;;;;5096838;28;20040;-79
2022/11/24 05:52:27;;;;;;;14.43;3.90;;;6.60;99.90;;;;;;5096497;28;20040;-79
2022/11/24 05:54:53;;;;;;;18.25;3.78;;;6.50;99.90;;;;;;5096505;28;20452;-79
2022/11/24 05:57:18;;;;;;;10.00;3.30;;;6.50;99.90;;;;;;5096356;28;20562;-79
2022/11/24 05:59:44;;;;;;;18.45;4.20;;;6.40;99.90;;;;;;5096278;28;20101;-80
2022/11/24 06:02:10;;;;;;;16.60;3.83;;;6.40;99.90;;;;;;5096416;28;20101;-79
2022/11/24 06:04:36;;;;;;;29.70;5.25;;;6.40;99.90;;;;;;5096384;28;20074;-79
2022/11/24 06:07:02;;;;;;;16.63;4.60;;;6.30;99.90;;;;;;5096074;28;20548;-80
2022/11/24 06:09:28;;;;;;;11.65;3.70;;;6.30;99.90;;;;;;5096476;28;20105;-80
2022/11/24 06:11:56;;;;;;;13.88;3.72;;;6.20;99.90;;;;;;5096243;28;20075;-79
2022/11/24 06:14:22;;;;;;;17.58;3.95;;;6.20;99.90;;;;;;5096362;28;20184;-83
2022/11/24 06:16:47;;;;;;;19.25;3.85;;;6.20;99.90;;;;;;5095996;28;20127;-83
2022/11/24 06:19:13;;;;;;;11.93;3.88;;;6.10;99.90;;;;;;5096139;28;20488;-80
2022/11/24 06:21:38;;;;;;;15.15;3.72;;;6.10;99.90;;;;;;5096052;28;20048;-77
2022/11/24 06:24:04;;;;;;;12.68;3.60;;;6.10;99.90;;;;;;5094930;28;20098;-80
2022/11/24 06:26:30;;;;;;;19.30;4.15;;;6.10;99.90;;;;;;5095499;28;20062;-77
2022/11/24 06:28:56;;;;;;;12.68;3.72;;;6.10;99.90;;;;;;5095985;28;20062;-77
2022/11/24 06:31:22;;;;;;;19.58;4.20;;;6.10;99.90;;;;;;5095658;28;20047;-77
2022/11/24 06:33:47;;;;;;;14.63;3.97;;;6.10;99.90;;;;;;5095845;28;20123;-77
2022/11/24 06:36:14;;;;;;;20.13;3.80;;;6.10;99.90;;;;;;5095728;28;20032;-77
2022/11/24 06:38:39;;;;;;;16.45;4.18;;;6.10;99.90;;;;;;5095722;28;20445;-78
2022/11/24 06:41:13;;;;;;;13.60;3.95;;;6.10;99.90;;;;;;5095911;28;20114;-77
2022/11/24 06:43:39;;;;;;;13.95;3.50;;;6.10;99.90;;;;;;5095649;28;20047;-78
2022/11/24 06:46:04;;;;;;;21.60;4.23;;;6.10;99.90;;;;;;5095530;28;20087;-77
2022/11/24 06:48:31;;;;;;;14.23;3.90;;;6.20;99.90;;;;;;5095604;28;20075;-78
2022/11/24 06:51:01;;;;;;;20.67;4.43;;;6.20;99.90;;;;;;5095383;28;20040;-77
2022/11/24 06:53:30;;;;;;;20.05;4.97;;;6.20;99.90;;;;;;5095480;28;20109;-77
2022/11/24 06:56:00;;;;;;;16.10;4.38;;;6.30;99.90;;;;;;5095329;28;20051;-76
2022/11/24 06:58:26;;;;;;;16.02;3.92;;;6.30;99.90;;;;;;5095369;28;20556;-78
2022/11/24 07:00:52;;;;;;;19.65;4.35;;;6.30;99.90;;;;;;5095343;28;20056;-81
2022/11/24 07:03:18;;;;;;;19.05;4.32;;;6.30;99.90;;;;;;5095283;28;20032;-76
2022/11/24 07:05:44;;;;;;;17.77;4.50;;;6.40;99.90;;;;;;5095182;28;20498;-78
2022/11/24 07:08:10;;;;;;;26.50;4.70;;;6.40;99.90;;;;;;5095356;28;20048;-77
2022/11/24 07:10:36;;;;;;;12.32;3.88;;;6.50;99.90;;;;;;5095002;28;20036;-77
2022/11/24 07:13:04;;;;;;;18.20;4.43;;;6.50;99.90;;;;;;5095032;28;20092;-77
2022/11/24 07:15:30;;;;;;;18.95;5.00;;;6.60;99.90;;;;;;5094999;28;20039;-74
2022/11/24 07:17:55;;;;;;;22.73;4.40;;;6.60;99.90;;;;;;5094697;28;20075;-76
2022/11/24 07:20:21;;;;;;;17.75;3.90;;;6.70;99.90;;;;;;5094860;28;20082;-76
2022/11/24 07:22:46;;;;;;;27.05;5.25;;;6.70;99.90;;;;;;5095058;28;20377;-77
2022/11/24 07:25:13;;;;;;;17.80;4.55;;;6.70;99.90;;;;;;5094796;28;20055;-78
2022/11/24 07:27:40;;;;;;;18.70;4.97;;;6.80;99.90;;;;;;5094763;28;20127;-77
2022/11/24 07:30:07;;;;;;;19.60;4.85;;;6.80;99.90;;;;;;5094203;28;20510;-75
2022/11/24 07:32:33;;;;;;;19.50;4.68;;;6.80;99.90;;;;;;5094717;28;20522;-76
2022/11/24 07:34:59;;;;;;;19.88;4.82;;;6.90;99.90;;;;;;5094643;28;20075;-76
2022/11/24 07:37:25;;;;;;;18.25;4.95;;;6.90;99.90;;;;;;5093701;28;20488;-77
2022/11/24 07:39:51;;;;;;;18.50;5.47;;;6.90;99.90;;;;;;5094689;28;20067;-77
2022/11/24 07:42:17;;;;;;;20.58;4.97;;;6.90;99.90;;;;;;5094559;28;20468;-77
2022/11/24 07:44:42;;;;;;;15.90;4.43;;;7.10;99.90;;;;;;5094332;28;20056;-77
2022/11/24 07:47:08;;;;;;;19.17;4.38;;;7.00;99.90;;;;;;5093177;28;20040;-77
2022/11/24 07:49:33;;;;;;;16.95;4.93;;;7.00;99.90;;;;;;5076463;28;20472;-76
2022/11/24 07:51:59;;;;;;;19.02;4.80;;;7.00;99.90;;;;;;5094327;28;20071;-77
2022/11/24 07:54:25;;;;;;;19.30;4.83;;;7.10;99.90;;;;;;5094346;28;20052;-77
2022/11/24 07:56:50;;;;;;;18.45;4.90;;;7.00;99.90;;;;;;5094287;28;20495;-78
2022/11/24 07:59:16;;;;;;;14.15;4.15;;;7.10;99.90;;;;;;5094148;28;20040;-78
2022/11/24 08:01:42;;;;;;;17.27;5.03;;;7.10;99.90;;;;;;5094107;28;20051;-77
2022/11/24 08:04:07;;;;;;;17.55;4.50;;;7.00;99.90;;;;;;5094612;28;20044;-77
2022/11/24 08:06:33;;;;;;;12.07;4.18;;;7.00;99.90;;;;;;5094085;28;20036;-76
2022/11/24 08:08:58;;;;;;;18.33;4.70;;;7.00;99.90;;;;;;5093879;28;20131;-77
2022/11/24 08:11:24;;;;;;;17.85;4.53;;;7.00;99.90;;;;;;5093947;28;20047;-77
2022/11/24 08:13:50;;;;;;;27.30;5.32;;;7.00;99.90;;;;;;5093935;28;20123;-76
2022/11/24 08:16:17;;;;;;;15.05;4.20;;;7.00;99.90;;;;;;5092742;28;20040;-77
2022/11/24 08:18:49;;;;;;;15.68;4.35;;;7.00;99.90;;;;;;5093867;28;20040;-79
2022/11/24 08:21:15;;;;;;;11.90;4.50;;;7.00;99.90;;;;;;5093598;28;20474;-78
2022/11/24 08:23:40;;;;;;;10.30;4.00;;;6.90;99.90;;;;;;5093911;28;20051;-78
2022/11/24 08:26:09;;;;;;;19.90;4.43;;;6.90;99.90;;;;;;5094013;28;20387;-76
2022/11/24 08:28:37;;;;;;;9.90;4.00;;;6.90;99.90;;;;;;5093418;28;20036;-77
2022/11/24 08:31:03;;;;;;;;;;;6.90;99.90;;;;;;5093171;28;20087;-77
2022/11/24 08:33:29;;;;;;;12.20;4.45;;;7.20;99.90;;;;;;5094329;28;19920;-76
2022/11/24 08:35:55;;;;;;;12.20;3.70;;;6.90;99.90;;;;;;5093800;28;20063;-77
2022/11/24 08:38:20;;;;;;;21.52;4.57;;;6.90;99.90;;;;;;5093798;28;20048;-77
2022/11/24 08:40:46;;;;;;;24.83;4.30;;;6.90;99.90;;;;;;5093726;28;20036;-79
2022/11/24 08:43:12;;;;;;;16.73;4.15;;;6.90;99.90;;;;;;5093613;28;20040;-78
2022/11/24 08:45:37;;;;;;;16.95;4.55;;;7.00;99.90;;;;;;5093628;28;20039;-76
2022/11/24 08:48:03;;;;;;;14.40;4.55;;;7.60;99.90;;;;;;5094831;28;20106;-77
2022/11/24 08:50:29;;;;;;;17.23;4.55;;;7.10;99.90;;;;;;5097705;28;20554;-77
2022/11/24 08:52:54;;;;;;;12.10;4.78;;;7.10;99.90;;;;;;5097559;28;20141;-78
2022/11/24 08:55:20;;;;;;;18.20;4.65;;;7.20;99.90;;;;;;5097910;28;20093;-76
2022/11/24 08:57:46;;;;;;;12.35;5.50;;;7.20;99.90;;;;;;5097507;28;20044;-76
2022/11/24 09:00:12;;;;;;;11.98;4.95;;;7.20;99.90;;;;;;5096765;28;20457;-77
2022/11/24 09:02:38;;;;;;;15.65;4.93;;;7.30;99.90;;;;;;5098199;28;20048;-78
2022/11/24 09:05:04;;;;;;;19.60;4.68;;;7.30;99.90;;;;;;5097469;28;20053;-80
2022/11/24 09:07:29;;;;;;;14.25;4.95;;;7.40;99.90;;;;;;5097480;28;20047;-77
2022/11/24 09:09:55;;;;;;;15.25;4.75;;;7.40;99.90;;;;;;5097193;28;20392;-78
2022/11/24 09:12:21;;;;;;;12.45;4.55;;;7.40;99.90;;;;;;5097074;28;20040;-78
2022/11/24 09:14:46;;;;;;;14.05;4.97;;;8.00;99.90;;;;;;5097390;28;20086;-79
2022/11/24 09:17:12;;;;;;;17.60;4.82;;;7.50;99.90;;;;;;5097289;28;20083;-80
2022/11/24 09:19:38;;;;;;;16.60;5.18;;;7.60;99.90;;;;;;5097154;28;20039;-78
2022/11/24 09:22:03;;;;;;;13.45;5.00;;;7.60;99.90;;;;;;5097161;28;20040;-79
2022/11/24 09:24:29;;;;;;;11.50;4.40;;;7.70;99.90;;;;;;5095706;28;20130;-77
2022/11/24 09:26:55;;;;;;;13.18;4.05;;;7.70;99.90;;;;;;5097099;28;20051;-77
2022/11/24 09:29:21;;;;;;;14.45;4.53;;;7.80;99.90;;;;;;5097326;28;20502;-80
2022/11/24 09:31:47;;;;;;;14.00;4.13;;;7.80;99.90;;;;;;5095547;28;20082;-78
2022/11/24 09:34:14;;;;;;;12.73;4.28;;;7.80;99.90;;;;;;5096109;28;20055;-74
2022/11/24 09:36:40;;;;;;;12.38;4.30;;;7.90;99.90;;;;;;5096827;28;20078;-71
2022/11/24 09:39:06;;;;;;;9.30;4.23;;;7.90;99.90;;;;;;5096590;28;20518;-75
2022/11/24 09:41:38;;;;;;;11.13;4.10;;;7.90;99.90;;;;;;5096840;28;20048;-77
2022/11/24 09:44:27;;;;;;;8.30;3.70;;;8.00;99.90;;;;;;5096755;28;20051;-70
2022/11/24 09:47:14;;;;;;;6.30;3.47;;;8.10;99.90;;;;;;5096747;28;20033;-79
2022/11/24 09:50:03;;;;;;;11.43;3.95;;;8.10;99.90;;;;;;5096662;28;20145;-78
2022/11/24 09:52:42;;;;;;;9.57;4.13;;;8.10;99.90;;;;;;5097177;28;20083;-78
2022/11/24 09:55:23;;;;;;;6.07;3.70;;;8.10;99.90;;;;;;5096638;28;20075;-72
2022/11/24 09:57:56;;;;;;;9.05;3.58;;;8.20;99.90;;;;;;5096770;28;20127;-76
2022/11/24 10:00:22;;;;;;;5.50;3.40;;;8.30;99.90;;;;;;5094398;28;20039;-77
2022/11/24 10:02:48;;;;;;;8.38;3.75;;;8.30;99.90;;;;;;5096439;28;20549;-78
2022/11/24 10:05:14;;;;;;;10.18;3.38;;;8.60;99.90;;;;;;5096379;28;20048;-77
2022/11/24 10:08:05;;;;;;;6.35;3.30;;;8.30;99.90;;;;;;5096255;28;20092;-78
2022/11/24 10:10:57;;;;;;;7.25;3.78;;;8.40;99.90;;;;;;5096306;28;20044;-78
2022/11/24 10:13:53;;;;;;;7.30;4.03;;;8.40;99.90;;;;;;5096276;28;20127;-79
2022/11/24 10:16:40;;;;;;;6.88;3.78;;;8.50;99.90;;;;;;5085143;28;20052;-78
2022/11/24 10:19:13;;;;;;;8.93;3.58;;;8.50;99.90;;;;;;5096188;28;20044;-78
2022/11/24 10:22:00;;;;;;;8.63;4.10;;;8.60;99.90;;;;;;5096038;28;20424;-76
2022/11/24 10:24:40;;;;;;;6.32;3.33;;;8.60;99.90;;;;;;5095981;28;20055;-78
2022/11/24 10:27:17;;;;;;;8.45;3.72;;;8.60;99.90;;;;;;5096329;28;20098;-77
2022/11/24 10:29:43;;;;;;;9.73;4.25;;;8.80;99.90;;;;;;5095887;28;20105;-79
2022/11/24 10:32:29;;;;;;;8.27;4.13;;;8.80;99.90;;;;;;5096257;28;20036;-77
2022/11/24 10:35:01;;;;;;;7.90;3.83;;;8.90;99.90;;;;;;5095834;28;20131;-80
2022/11/24 10:37:34;;;;;;;8.30;3.85;;;9.10;99.90;;;;;;5095833;28;20044;-80
2022/11/24 10:40:26;;;;;;;11.10;4.10;;;9.10;99.90;;;;;;5095600;28;20040;-79
2022/11/24 10:42:51;;;;;;;10.85;4.35;;;9.10;99.90;;;;;;5096350;28;20071;-80
2022/11/24 10:45:21;;;;;;;10.35;4.15;;;9.20;99.90;;;;;;5095685;28;20491;-80
2022/11/24 10:47:48;;;;;;;10.18;4.03;;;9.60;99.90;;;;;;5095249;28;20039;-79
2022/11/24 10:50:30;;;;;;;10.48;4.43;;;9.30;99.90;;;;;;5095454;28;20036;-80
2022/11/24 10:53:07;;;;;;;8.38;4.13;;;9.30;99.90;;;;;;5095555;28;20101;-79
2022/11/24 10:55:57;;;;;;;7.65;4.25;;;9.30;99.90;;;;;;5095868;28;20048;-80
2022/11/24 10:58:28;;;;;;;8.82;4.20;;;9.40;99.90;;;;;;5095091;28;20407;-79
2022/11/24 11:00:55;;;;;;;9.02;4.68;;;9.50;99.90;;;;;;5095384;28;20055;-79
2022/11/24 11:03:27;;;;;;;8.90;4.22;;;9.50;99.90;;;;;;5094029;28;20166;-79
2022/11/24 11:06:01;;;;;;;10.48;4.43;;;9.50;99.90;;;;;;5095660;28;20052;-77
2022/11/24 11:08:29;;;;;;;7.50;4.55;;;9.50;99.90;;;;;;5095268;28;20040;-79
2022/11/24 11:11:18;;;;;;;10.23;4.22;;;9.50;99.90;;;;;;5093635;28;20490;-81
2022/11/24 11:13:53;;;;;;;7.43;4.55;;;9.60;99.90;;;;;;5094996;28;20040;-71
2022/11/24 11:16:23;;;;;;;7.65;4.88;;;9.60;99.90;;;;;;5095383;28;20044;-80
2022/11/24 11:18:49;;;;;;;10.48;5.03;;;9.90;99.90;;;;;;5094945;28;20127;-80
2022/11/24 11:21:39;;;;;;;9.73;5.00;;;9.70;99.90;;;;;;5098333;28;20086;-79
2022/11/24 11:24:17;;;;;;;8.93;5.18;;;9.70;99.90;;;;;;5096224;28;20134;-77
2022/11/24 11:26:42;;;;;;;;;;;9.70;99.90;;;;;;5095752;28;20052;-76
2022/11/24 11:29:09;;;;;;;9.63;5.15;;;9.90;99.90;;;;;;5095144;28;19927;-76
2022/11/24 11:31:36;;;;;;;16.75;5.78;;;9.80;99.90;;;;;;5093558;28;20040;-77
2022/11/24 11:34:08;;;;;;;7.60;5.15;;;9.80;99.90;;;;;;5094741;28;20059;-76
2022/11/24 11:36:37;;;;;;;9.75;5.93;;;9.90;99.90;;;;;;5094600;28;20500;-76
2022/11/24 11:39:03;;;;;;;10.07;5.53;;;9.90;99.90;;;;;;5094841;28;20139;-79
2022/11/24 11:41:39;;;;;;;8.95;5.18;;;10.10;99.90;;;;;;5095125;28;20047;-80
2022/11/24 11:44:25;;;;;;;10.88;5.65;;;10.00;99.90;;;;;;5094819;28;20474;-77
2022/11/24 11:46:53;;;;;;;9.88;5.63;;;10.00;99.90;;;;;;5094603;28;20050;-78
2022/11/24 11:49:18;;;;;;;12.15;5.05;;;10.10;99.90;;;;;;5094320;28;20370;-78
2022/11/24 11:51:55;;;;;;;11.10;5.32;;;10.20;99.90;;;;;;5094380;28;20114;-79
2022/11/24 11:54:46;;;;;;;13.63;5.82;;;10.20;99.90;;;;;;5094422;28;20048;-80
2022/11/24 11:57:27;;;;;;;9.32;5.50;;;10.20;99.90;;;;;;5094383;28;20051;-79
2022/11/24 12:00:14;;;;;;;12.73;6.10;;;10.20;99.90;;;;;;5094763;28;20396;-76
2022/11/24 12:03:27;;;;;;;10.45;5.70;;;10.30;99.90;;;;;;5094125;28;20484;-82
2022/11/24 12:06:05;;;;;;;12.77;5.70;;;10.30;99.90;;;;;;5080176;28;20454;-76
2022/11/24 12:08:43;;;;;;;11.45;5.75;;;10.30;99.90;;;;;;5093903;28;20549;-79
2022/11/24 12:11:17;;;;;;;12.57;5.68;;;10.30;99.90;;;;;;5094304;28;20050;-79
2022/11/24 12:14:11;;;;;;;14.77;5.70;;;10.60;99.90;;;;;;5094066;28;20066;-79
2022/11/24 12:16:44;;;;;;;12.13;5.63;;;10.30;99.90;;;;;;5094487;28;20087;-79
2022/11/24 12:19:25;;;;;;;13.20;5.25;;;10.20;99.90;;;;;;5094205;28;20368;-80
2022/11/24 12:22:05;;;;;;;8.65;5.00;;;10.30;99.90;;;;;;5092923;28;20505;-78
2022/11/24 12:24:31;;;;;;;14.18;5.75;;;10.30;99.90;;;;;;5093462;28;20063;-81
2022/11/24 12:27:04;;;;;;;13.02;5.57;;;10.00;99.90;;;;;;5093821;28;20052;-79
2022/11/24 12:30:03;;;;;;;15.88;5.57;;;10.30;99.90;;;;;;5094147;28;20468;-80
2022/11/24 12:32:37;;;;;;;13.32;4.97;;;10.20;99.90;;;;;;5093819;28;20040;-79
2022/11/24 12:35:26;;;;;;;10.13;5.20;;;10.40;99.90;;;;;;5093459;28;20495;-80
2022/11/24 12:37:52;;;;;;;12.52;5.25;;;10.40;99.90;;;;;;5093744;28;20074;-78
2022/11/24 12:40:44;;;;;;;13.27;5.63;;;10.30;99.90;;;;;;5093594;28;20044;-81
2022/11/24 12:43:34;;;;;;;14.18;6.25;;;10.30;99.90;;;;;;5093039;28;20558;-79
2022/11/24 12:46:11;;;;;;;11.65;6.80;;;10.30;99.90;;;;;;5093741;28;20245;-78
2022/11/24 12:48:43;;;;;;;14.82;6.38;;;10.30;99.90;;;;;;5094004;28;20369;-77
2022/11/24 12:51:18;;;;;;;13.98;6.68;;;10.30;99.90;;;;;;5093430;28;20387;-77
2022/11/24 12:53:46;;;;;;;19.30;6.60;;;10.30;99.90;;;;;;5092495;28;20388;-78
2022/11/24 12:56:15;;;;;;;12.00;6.25;;;10.30;99.90;;;;;;5093435;28;20059;-78
2022/11/24 12:58:50;;;;;;;11.55;6.38;;;10.60;99.90;;;;;;5092397;28;20052;-77
2022/11/24 13:01:41;;;;;;;11.98;6.32;;;10.90;99.90;;;;;;5094020;28;20404;-79